Time;durP1;ratioP1;P1;durP2;ratioP2;P2;SDS_P1;SDS_P2;PMS_P1;PMS_P2;Temp;Humidity;BMP_temperature;BMP_pressure;BME280_temperature;BME280_humidity;BME280_pressure;Samples;Min_cycle;Max_cycle;Signal;HPM_P1;HPM_P2
2023/09/20 00:02:02;;;;;;;;;;;19.50;78.30;;;19.68;47.92;98608.84;4927061;28;118792;-86
2023/09/20 00:04:29;;;;;;;;;;;19.40;78.40;;;19.65;48.29;98604.78;4923351;28;123453;-86
2023/09/20 00:06:56;;;;;;;;;;;19.40;78.60;;;19.64;48.58;98608.78;4942282;28;124602;-87
2023/09/20 00:09:23;;;;;;;;;;;19.40;78.70;;;;;;4935814;28;120055;-86
2023/09/20 00:11:49;;;;;;;;;;;19.40;78.90;;;19.66;48.67;98600.00;4939506;28;119059;-86
2023/09/20 00:14:16;;;;;;;;;;;19.40;79.20;;;19.65;48.56;98593.56;4943081;28;124106;-86
2023/09/20 00:16:45;;;;;;;;;;;19.40;79.30;;;19.67;48.77;98598.84;4948158;28;123941;-86
2023/09/20 00:19:11;;;;;;;;;;;19.40;79.50;;;19.69;48.75;98598.44;4954294;28;119374;-86
2023/09/20 00:21:39;;;;;;;;;;;19.40;79.70;;;19.70;48.64;98598.06;4951132;28;118718;-85
2023/09/20 00:24:06;;;;;;;;;;;19.40;79.80;;;19.68;48.81;98594.84;4946995;28;124523;-86
2023/09/20 00:26:33;;;;;;;;;;;19.40;79.90;;;19.67;49.09;98598.84;4955898;28;123479;-86
2023/09/20 00:29:07;;;;;;;;;;;19.40;80.00;;;19.67;48.79;98590.44;4951260;28;119732;-86
2023/09/20 00:31:33;;;;;;;;;;;19.40;80.30;;;19.65;48.90;98595.56;4954103;28;119086;-85
2023/09/20 00:34:03;;;;;;;;;;;19.40;80.30;;;19.61;49.05;98586.28;4955375;28;124624;-86
2023/09/20 00:36:32;;;;;;;;;;;19.40;80.50;;;19.60;49.13;98581.88;4946948;28;123267;-86
2023/09/20 00:39:03;;;;;;;;;;;19.40;80.60;;;19.61;49.13;98586.28;4960309;28;120773;-86
2023/09/20 00:41:31;;;;;;;;;;;19.40;80.70;;;19.61;48.97;98589.91;4945168;28;119440;-86
2023/09/20 00:43:58;;;;;;;;;;;19.40;80.70;;;19.61;49.05;98584.31;4952472;28;124809;-85
2023/09/20 00:46:24;;;;;;;;;;;19.40;80.80;;;19.62;49.08;98585.91;4951826;28;123886;-86
2023/09/20 00:48:51;;;;;;;;;;;19.40;80.90;;;;;;4930997;28;119462;-86
2023/09/20 00:51:18;;;;;;;;;;;19.40;81.00;;;19.61;49.19;98583.47;4944421;28;118906;-86
2023/09/20 00:53:45;;;;;;;;;;;19.40;81.10;;;19.59;49.43;98583.06;4935215;28;123667;-86
2023/09/20 00:56:13;;;;;;;;;;;19.30;81.10;;;19.57;49.71;98572.22;4934326;28;124053;-86
2023/09/20 00:58:43;;;;;;;;;;;19.30;81.30;;;19.55;49.68;98576.59;4951176;28;119431;-85
2023/09/20 01:01:10;;;;;;;;;;;19.30;81.40;;;19.53;49.64;98571.38;4936732;28;119420;-86
2023/09/20 01:03:36;;;;;;;;;;;19.30;81.60;;;19.53;49.84;98564.94;4936545;28;123185;-87
2023/09/20 01:06:09;;;;;;;;;;;19.30;81.80;;;19.50;49.71;98565.72;4920891;28;123859;-86
2023/09/20 01:08:36;;;;;;;;;;;19.20;81.70;;;19.49;49.90;98570.50;4938487;28;119505;-86
2023/09/20 01:11:04;;;;;;;;;;;19.20;81.80;;;19.47;49.79;98567.25;4938376;28;119475;-86
2023/09/20 01:13:33;;;;;;;;;;;19.20;81.80;;;19.45;49.93;98566.03;4941827;28;124324;-86
2023/09/20 01:16:01;;;;;;;;;;;19.20;81.90;;;19.42;49.75;98565.63;4963785;28;122977;-86
2023/09/20 01:18:28;;;;;;;;;;;19.20;81.90;;;19.42;50.02;98565.63;4932051;28;119221;-87
2023/09/20 01:20:54;;;;;;;;;;;19.20;82.10;;;19.41;50.07;98565.97;4924702;28;119670;-87
2023/09/20 01:23:21;;;;;;;;;;;20.10;83.00;;;19.41;50.08;98565.97;4927285;28;122945;-89
2023/09/20 01:25:49;;;;;;;;;;;19.20;82.20;;;19.41;50.02;98560.38;4935878;28;124420;-87
2023/09/20 01:28:18;;;;;;;;;;;19.20;82.30;;;19.40;49.92;98569.97;4913388;28;119324;-89
2023/09/20 01:30:49;;;;;;;;;;;19.20;82.40;;;19.37;49.92;98571.53;4914892;28;118937;-87
2023/09/20 01:33:16;;;;;;;;;;;19.10;82.50;;;19.36;50.32;98567.09;4963113;28;123367;-87
2023/09/20 01:35:45;;;;;;;;;;;19.10;82.80;;;19.35;50.31;98573.91;4941976;28;123539;-87
2023/09/20 01:38:11;;;;;;;;;;;19.10;82.80;;;19.31;50.15;98561.81;4934755;28;119856;-87
2023/09/20 01:40:39;;;;;;;;;;;19.00;82.80;;;19.29;50.06;98569.81;4937211;28;118911;-88
2023/09/20 01:43:08;;;;;;;;;;;19.00;82.80;;;19.27;50.34;98566.56;4946216;28;123936;-88
2023/09/20 01:45:36;;;;;;;;;;;19.00;83.00;;;19.24;50.21;98567.34;4934180;28;123742;-87
2023/09/20 01:48:06;;;;;;;;;;;19.00;83.00;;;19.20;50.27;98566.47;4948430;28;120113;-88
2023/09/20 01:50:33;;;;;;;;;;;19.00;83.20;;;19.18;50.36;98563.22;4938268;28;117999;-87
2023/09/20 01:53:00;;;;;;;;;;;19.00;83.30;;;19.15;50.38;98558.38;4931840;28;123703;-87
2023/09/20 01:55:28;;;;;;;;;;;18.90;83.40;;;19.14;50.33;98565.16;4935460;28;122884;-88
2023/09/20 01:57:55;;;;;;;;;;;18.90;83.40;;;19.16;50.44;98557.19;4959429;28;119559;-87
2023/09/20 02:00:25;;;;;;;;;;;18.90;83.40;;;19.16;50.49;98555.22;4948426;28;118177;-88
2023/09/20 02:02:56;;;;;;;;;;;18.90;83.40;;;19.17;50.53;98553.22;4947446;28;124464;-87
2023/09/20 02:05:24;;;;;;;;;;;18.90;83.40;;;19.16;50.49;98549.59;4944196;28;123718;-88
2023/09/20 02:07:55;;;;;;;;;;;18.90;83.40;;;19.16;50.62;98546.00;4919365;28;119515;-87
2023/09/20 02:10:21;;;;;;;;;;;18.90;83.50;;;19.16;50.58;98554.41;4948271;28;118483;-87
2023/09/20 02:12:53;;;;;;;;;;;18.90;83.40;;;19.14;50.41;98551.97;4923060;28;124975;-87
2023/09/20 02:15:21;;;;;;;;;;;18.90;83.40;;;19.14;50.32;98548.38;4947704;28;124766;-88
2023/09/20 02:17:47;;;;;;;;;;;18.90;83.50;;;19.12;50.72;98543.13;4925154;28;120669;-88
2023/09/20 02:20:24;;;;;;;;;;;18.90;83.50;;;19.11;50.18;98546.31;4947181;28;119693;-88
2023/09/20 02:22:52;;;;;;;;;;;18.90;83.40;;;19.12;50.47;98547.91;4938049;28;127286;-87
2023/09/20 02:25:20;;;;;;;;;;;18.90;83.50;;;19.13;50.46;98549.56;4944015;28;124470;-87
2023/09/20 02:27:52;;;;;;;;;;;18.90;83.60;;;19.14;50.49;98548.38;4918928;28;119659;-87
2023/09/20 02:30:24;;;;;;;;;;;18.90;83.70;;;19.15;50.40;98544.38;4938343;28;118446;-88
2023/09/20 02:32:52;;;;;;;;;;;18.90;83.90;;;19.17;50.62;98540.00;4946646;28;124303;-87
2023/09/20 02:35:25;;;;;;;;;;;18.90;84.00;;;19.19;50.75;98540.44;4945790;28;122912;-87
2023/09/20 02:37:53;;;;;;;;;;;18.90;84.10;;;19.23;50.40;98545.28;4928947;28;120022;-87
2023/09/20 02:40:23;;;;;;;;;;;18.90;84.10;;;19.24;50.60;98538.53;4940872;28;117888;-87
2023/09/20 02:42:54;;;;;;;;;;;19.00;84.30;;;19.26;50.60;98542.53;4941385;28;123879;-87
2023/09/20 02:45:23;;;;;;;;;;;19.00;84.40;;;19.28;50.61;98544.97;4926978;28;122773;-87
2023/09/20 02:47:49;;;;;;;;;;;19.00;84.40;;;19.27;50.37;98538.56;4929728;28;119798;-87
2023/09/20 02:50:18;;;;;;;;;;;19.00;84.40;;;19.28;50.65;98547.78;4946941;28;118485;-87
2023/09/20 02:52:48;;;;;;;;;;;19.00;84.40;;;19.29;50.44;98543.78;4962069;28;124428;-87
2023/09/20 02:55:17;;;;;;;;;;;19.00;84.40;;;19.26;50.58;98542.53;4919451;28;124065;-87
2023/09/20 02:57:44;;;;;;;;;;;19.00;84.40;;;19.25;50.70;98549.34;4930253;28;119746;-88
2023/09/20 03:00:16;;;;;;;;;;;19.00;84.40;;;19.23;50.65;98537.69;4948707;28;118468;-86
2023/09/20 03:02:44;;;;;;;;;;;18.90;84.40;;;19.20;50.70;98541.25;4958715;28;124184;-87
2023/09/20 03:05:16;;;;;;;;;;;18.90;84.40;;;19.17;50.48;98540.00;4928852;28;124188;-88
2023/09/20 03:07:45;;;;;;;;;;;18.90;84.60;;;19.14;50.76;98534.34;4917829;28;120572;-87
2023/09/20 03:10:12;;;;;;;;;;;18.90;84.60;;;19.12;50.56;98537.53;4933493;28;119925;-88
2023/09/20 03:12:41;;;;;;;;;;;18.90;84.60;;;19.13;50.75;98529.94;4941286;28;123694;-87
2023/09/20 03:15:10;;;;;;;;;;;18.80;84.60;;;19.12;50.61;98525.53;4928729;28;122939;-87
2023/09/20 03:17:40;;;;;;;;;;;18.80;84.70;;;19.12;50.81;98528.31;4933868;28;119641;-88
2023/09/20 03:20:16;;;;;;;;;;;18.80;84.70;;;19.12;50.77;98531.13;4950890;28;118861;-87
2023/09/20 03:22:46;;;;;;;;;;;18.80;84.80;;;19.10;50.99;98522.28;4927414;28;124211;-88
2023/09/20 03:25:17;;;;;;;;;;;18.80;85.00;;;19.06;50.92;98524.22;4942910;28;122709;-87
2023/09/20 03:27:44;;;;;;;;;;;18.80;85.10;;;19.02;51.19;98524.19;4919204;28;119754;-88
2023/09/20 03:30:16;;;;;;;;;;;18.70;85.10;;;19.00;51.12;98517.34;4927675;28;119528;-87
2023/09/20 03:32:44;;;;;;;;;;;18.70;85.40;;;18.96;51.61;98511.66;4945860;28;125019;-87
2023/09/20 03:35:12;;;;;;;;;;;18.70;85.60;;;18.93;51.53;98510.41;4941560;28;122926;-88
2023/09/20 03:37:40;;;;;;;;;;;18.70;85.70;;;18.89;51.20;98511.56;4962145;28;120056;-87
2023/09/20 03:40:11;;;;;;;;;;;18.60;85.70;;;18.86;51.67;98509.50;4960850;28;117819;-88
2023/09/20 03:42:39;;;;;;;;;;;18.60;85.80;;;18.84;51.58;98501.50;4928730;28;124306;-88
2023/09/20 03:45:10;;;;;;;;;;;18.60;85.90;;;18.84;51.61;98503.47;4932662;28;123927;-88
2023/09/20 03:47:40;;;;;;;;;;;18.60;86.20;;;18.81;51.98;98505.03;4928998;28;119150;-87
2023/09/20 03:50:10;;;;;;;;;;;18.60;86.20;;;18.78;51.75;98505.78;4956159;28;118504;-87
2023/09/20 03:52:39;;;;;;;;;;;18.50;86.10;;;18.76;51.83;98500.56;4912670;28;123272;-87
2023/09/20 03:55:06;;;;;;;;;;;18.50;86.20;;;18.75;52.01;98503.72;4935790;28;124531;-84
2023/09/20 03:57:33;;;;;;;;;;;18.50;86.30;;;18.75;51.78;98492.53;4926783;28;120668;-88
2023/09/20 03:59:59;;;;;;;;;;;18.50;86.40;;;18.75;52.02;98489.72;4935270;28;119810;-87
2023/09/20 04:02:29;;;;;;;;;;;18.50;86.50;;;18.74;52.01;98488.09;4941492;28;123579;-87
2023/09/20 04:04:55;;;;;;;;;;;18.50;86.50;;;18.73;51.95;98486.47;4933487;28;123917;-87
2023/09/20 04:07:26;;;;;;;;;;;18.50;86.50;;;18.72;51.94;98488.44;4933924;28;119707;-87
2023/09/20 04:09:53;;;;;;;;;;;18.50;86.60;;;18.73;52.03;98490.09;4937891;28;118256;-87
2023/09/20 04:12:23;;;;;;;;;;;18.50;86.70;;;18.76;52.14;98494.16;4912086;28;124233;-87
2023/09/20 04:14:53;;;;;;;;;;;18.50;86.70;;;18.78;52.10;98494.59;4936810;28;124212;-87
2023/09/20 04:17:21;;;;;;;;;;;18.50;86.80;;;18.79;51.97;98498.19;4949642;28;119697;-87
2023/09/20 04:19:47;;;;;;;;;;;18.50;86.80;;;18.81;52.00;98488.25;4958949;28;119213;-87
2023/09/20 04:22:14;;;;;;;;;;;18.50;86.90;;;18.82;51.84;98494.66;4939412;28;124217;-88
2023/09/20 04:24:40;;;;;;;;;;;18.50;86.90;;;18.83;52.05;98487.84;4927345;28;123844;-87
2023/09/20 04:27:09;;;;;;;;;;;18.50;86.90;;;18.83;51.85;98485.84;4945630;28;119416;-87
2023/09/20 04:29:36;;;;;;;;;;;18.60;87.00;;;18.85;51.92;98482.69;4937625;28;117775;-87
2023/09/20 04:32:02;;;;;;;;;;;18.50;87.00;;;18.86;52.09;98484.31;4945972;28;124882;-87
2023/09/20 04:34:29;;;;;;;;;;;18.50;87.00;;;18.85;51.86;98483.50;4944806;28;124126;-87
2023/09/20 04:36:56;;;;;;;;;;;18.60;87.10;;;18.86;52.10;98484.31;4935774;28;119516;-87
2023/09/20 04:39:25;;;;;;;;;;;18.50;87.10;;;18.80;52.06;98469.81;4931096;28;118091;-88
2023/09/20 04:41:53;;;;;;;;;;;18.50;87.00;;;18.79;52.02;98473.00;4931586;28;124302;-87
2023/09/20 04:44:20;;;;;;;;;;;18.50;87.00;;;18.79;51.83;98476.63;4942340;28;123826;-87
2023/09/20 04:46:47;;;;;;;;;;;18.50;87.10;;;18.79;51.98;98473.81;4930881;28;120183;-88
2023/09/20 04:49:14;;;;;;;;;;;18.50;87.10;;;18.77;51.76;98481.78;4936566;28;119864;-87
2023/09/20 04:51:42;;;;;;;;;;;18.50;87.20;;;18.77;51.91;98476.16;4928906;28;123245;-87
2023/09/20 04:54:09;;;;;;;;;;;18.50;87.20;;;18.75;51.95;98482.16;4938005;28;124056;-88
2023/09/20 04:56:40;;;;;;;;;;;18.50;87.20;;;18.73;52.11;98481.69;4943472;28;120086;-88
2023/09/20 04:59:08;;;;;;;;;;;18.50;87.20;;;18.70;52.22;98481.66;4942747;28;118756;-87
2023/09/20 05:01:34;;;;;;;;;;;18.50;87.40;;;18.69;52.23;98480.00;4940666;28;126068;-85
2023/09/20 05:04:06;;;;;;;;;;;18.40;87.30;;;18.69;52.20;98482.81;4945059;28;124248;-86
2023/09/20 05:06:32;;;;;;;;;;;18.80;87.70;;;18.66;52.25;98489.97;4930668;28;119297;-84
2023/09/20 05:08:58;;;;;;;;;;;18.40;87.40;;;18.64;52.42;98477.53;4928781;28;118695;-83
2023/09/20 05:11:24;;;;;;;;;;;18.40;87.60;;;18.64;52.35;98477.53;4952392;28;124166;-84
2023/09/20 05:13:53;;;;;;;;;;;18.40;87.80;;;18.65;52.70;98491.16;4945559;28;124332;-85
2023/09/20 05:16:24;;;;;;;;;;;18.40;88.00;;;18.68;52.61;98489.59;4942122;28;119734;-85
2023/09/20 05:18:50;;;;;;;;;;;18.40;88.10;;;18.68;52.39;98478.41;4947372;28;118828;-85
2023/09/20 05:21:16;;;;;;;;;;;18.40;88.20;;;18.67;52.95;98477.59;4939924;28;124250;-86
2023/09/20 05:23:43;;;;;;;;;;;18.40;88.50;;;18.71;52.60;98480.44;4937645;28;123941;-84
2023/09/20 05:26:10;;;;;;;;;;;18.40;88.40;;;18.69;52.55;98488.41;4930061;28;120291;-82
2023/09/20 05:28:36;;;;;;;;;;;18.40;88.90;;;18.70;52.53;98485.25;4928551;28;118743;-85
2023/09/20 05:31:03;;;;;;;;;;;18.40;88.20;;;18.72;52.64;98488.44;4943078;28;124335;-86
2023/09/20 05:33:30;;;;;;;;;;;18.40;88.50;;;18.73;52.54;98489.28;4960141;28;123147;-86
2023/09/20 05:35:58;;;;;;;;;;;18.40;88.40;;;18.73;52.48;98484.50;4962563;28;119309;-85
2023/09/20 05:38:29;;;;;;;;;;;18.40;88.40;;;18.76;52.47;98480.16;4934550;28;119317;-85
2023/09/20 05:40:55;;;;;;;;;;;18.40;88.20;;;18.76;52.27;98480.16;4925891;28;124329;-86
2023/09/20 05:43:21;;;;;;;;;;;18.40;88.10;;;18.76;52.34;98474.56;4920404;28;124031;-86
2023/09/20 05:45:48;;;;;;;;;;;18.40;88.00;;;18.78;52.15;98477.81;4939697;28;119437;-87
2023/09/20 05:48:14;;;;;;;;;;;18.50;88.00;;;18.77;52.14;98473.38;4926589;28;117737;-86
2023/09/20 05:50:40;;;;;;;;;;;18.50;88.00;;;18.73;52.33;98481.69;4945336;28;124322;-87
2023/09/20 05:53:11;;;;;;;;;;;18.50;88.00;;;18.69;52.49;98482.81;4923526;28;124331;-87
2023/09/20 05:55:40;;;;;;;;;;;18.50;88.30;;;18.68;52.42;98495.19;4952575;28;119614;-85
2023/09/20 05:58:09;;;;;;;;;;;18.40;88.20;;;18.70;52.45;98490.03;4921726;28;119397;-86
2023/09/20 06:00:36;;;;;;;;;;;18.40;88.30;;;18.71;52.57;98488.84;4944388;28;123984;-84
2023/09/20 06:03:05;;;;;;;;;;;18.40;88.40;;;18.74;52.43;98494.53;4932149;28;123067;-86
2023/09/20 06:05:37;;;;;;;;;;;18.40;88.40;;;18.77;52.21;98492.97;4942845;28;119518;-86
2023/09/20 06:08:07;;;;;;;;;;;18.40;88.30;;;18.82;52.24;98495.44;4930712;28;118719;-85
2023/09/20 06:10:33;;;;;;;;;;;18.50;88.40;;;18.87;52.23;98503.53;4921968;28;124216;-85
2023/09/20 06:13:00;;;;;;;;;;;18.50;88.30;;;18.94;52.11;98498.06;4930856;28;124504;-86
2023/09/20 06:15:26;;;;;;;;;;;18.60;88.40;;;19.05;52.05;98497.41;4933310;28;119516;-86
2023/09/20 06:17:54;;;;;;;;;;;18.60;88.40;;;19.15;51.82;98497.56;4953939;28;118101;-86
2023/09/20 06:20:24;;;;;;;;;;;18.70;88.40;;;19.24;51.65;98505.72;4939409;28;124576;-84
2023/09/20 06:22:51;;;;;;;;;;;18.80;88.30;;;19.33;51.57;98499.81;4933479;28;124057;-86
2023/09/20 06:25:21;;;;;;;;;;;18.80;88.10;;;19.43;51.16;98499.97;4960892;28;119968;-84
2023/09/20 06:27:50;;;;;;;;;;;18.90;88.00;;;19.51;50.86;98491.69;4921846;28;118820;-88
2023/09/20 06:30:17;;;;;;;;;;;19.00;87.80;;;19.60;50.74;98495.00;4944334;28;124613;-85
2023/09/20 06:32:47;;;;;;;;;;;19.10;87.80;;;19.68;50.51;98493.94;4960119;28;122747;-85
2023/09/20 06:35:20;;;;;;;;;;;19.10;87.50;;;19.74;50.58;98494.41;4917836;28;119693;-86
2023/09/20 06:37:49;;;;;;;;;;;19.20;87.20;;;19.80;50.24;98478.84;4941039;28;119517;-86
2023/09/20 06:40:23;;;;;;;;;;;19.30;87.10;;;19.82;50.23;98474.47;4937507;28;124809;-86
2023/09/20 06:42:53;;;;;;;;;;;19.30;86.90;;;19.86;50.38;98472.53;4944597;28;123980;-87
2023/09/20 06:45:19;;;;;;;;;;;19.40;86.90;;;19.92;50.92;98472.19;4948127;28;119487;-87
2023/09/20 06:47:46;;;;;;;;;;;19.50;87.60;;;20.03;50.72;98479.53;4929643;28;118809;-86
2023/09/20 06:50:13;;;;;;;;;;;19.50;87.60;;;20.12;50.13;98470.00;4935237;28;124002;-86
2023/09/20 06:52:43;;;;;;;;;;;19.60;87.40;;;20.15;49.87;98470.06;4942623;28;123944;-84
2023/09/20 06:55:13;;;;;;;;;;;19.70;86.90;;;20.19;50.31;98459.66;4929231;28;119773;-84
2023/09/20 06:57:42;;;;;;;;;;;19.70;87.00;;;20.24;50.45;98462.13;4923307;28;119235;-82
2023/09/20 07:00:43;;;;;;;;;;;19.70;87.10;;;20.32;50.09;98459.41;4945399;28;124917;-85
2023/09/20 07:03:05;;;;;;;;;;;19.80;87.20;;;20.37;50.39;98448.63;4952073;28;123946;-85
2023/09/20 07:05:31;;;;;;;;;;;19.90;87.40;;;20.48;50.08;98454.34;4917321;28;118803;-85
2023/09/20 07:08:01;;;;;;;;;;;19.90;87.40;;;20.52;49.64;98455.16;4949214;28;118502;-84
2023/09/20 07:10:31;;;;;;;;;;;20.00;87.00;;;20.54;49.96;98458.41;4936251;28;124072;-84
2023/09/20 07:12:57;;;;;;;;;;;20.00;86.80;;;20.56;49.52;98444.81;4943882;28;124264;-86
2023/09/20 07:15:25;;;;;;;;;;;20.00;86.80;;;20.58;49.66;98434.00;4939632;28;122678;-87
2023/09/20 07:17:58;;;;;;;;;;;20.00;86.90;;;20.60;49.98;98442.03;4920255;28;120218;-84
2023/09/20 07:20:25;;;;;;;;;;;20.00;87.00;;;20.59;49.61;98441.22;4958136;28;123993;-85
2023/09/20 07:22:54;;;;;;;;;;;20.10;86.90;;;20.61;49.75;98436.03;4944347;28;124092;-84
2023/09/20 07:25:27;;;;;;;;;;;20.10;86.80;;;20.62;49.68;98443.25;4940557;28;119968;-84
2023/09/20 07:28:00;;;;;;;;;;;20.10;86.90;;;20.67;49.94;98439.28;4938922;28;118465;-84
2023/09/20 07:30:31;;;;;;;;;;;20.10;87.60;;;20.76;49.55;98436.13;4925235;28;124827;-86
2023/09/20 07:32:59;;;;;;;;;;;20.20;86.90;;;20.87;49.61;98445.44;4937908;28;124067;-85
2023/09/20 07:35:36;;;;;;;;;;;20.30;86.90;;;20.93;49.43;98435.47;4906841;28;118456;-83
2023/09/20 07:38:12;;;;;;;;;;;20.40;86.70;;;20.96;49.23;98434.69;4932369;28;118089;-83
2023/09/20 07:40:41;;;;;;;;;;;20.50;86.30;;;20.96;49.28;98432.69;4928333;28;124260;-85
2023/09/20 07:43:07;;;;;;;;;;;20.50;86.20;;;20.99;49.07;98439.50;4951944;28;123774;-84
2023/09/20 07:45:38;;;;;;;;;;;20.50;86.00;;;21.00;49.16;98438.31;4928907;28;119485;-84
2023/09/20 07:48:16;;;;;;;;;;;20.50;85.90;;;21.03;49.06;98434.72;4946264;28;118766;-85
2023/09/20 07:50:49;;;;;;;;;;;20.60;85.90;;;21.04;49.12;98430.72;4928198;28;124671;-84
2023/09/20 07:53:16;;;;;;;;;;;20.60;85.70;;;21.06;48.91;98428.31;4936553;28;124665;-85
2023/09/20 07:55:44;;;;;;;;;;;20.60;85.80;;;21.13;48.98;98428.38;4918284;28;118751;-85
2023/09/20 07:58:15;;;;;;;;;;;20.70;85.70;;;21.19;48.86;98426.78;4929835;28;118548;-85
2023/09/20 08:00:51;;;;;;;;;;;20.70;85.50;;;21.19;48.98;98421.16;4910013;28;123289;-85
2023/09/20 08:03:21;;;;;;;;;;;20.80;85.40;;;21.18;48.51;98413.94;4914432;28;123939;-85
2023/09/20 08:05:50;;;;;;;;;;;20.80;85.10;;;21.22;48.59;98419.56;4922192;28;120339;-84
2023/09/20 08:08:18;;;;;;;;;;;20.80;85.00;;;21.23;48.23;98409.97;4918676;28;118884;-85
2023/09/20 08:10:44;;;;;;;;;;;20.80;85.00;;;21.19;48.66;98407.13;4922104;28;124134;-86
2023/09/20 08:13:11;;;;;;;;;;;20.80;85.00;;;21.23;48.36;98397.94;4945086;28;123855;-84
2023/09/20 08:15:43;;;;;;;;;;;20.80;85.10;;;21.30;48.81;98406.38;4942083;28;119436;-86
2023/09/20 08:21:01;;;;;;;;;;;20.90;85.20;;;21.49;48.27;98403.28;4933027;28;124926;-85
2023/09/20 09:02:15;;;;;;;;;;;21.90;82.20;;;22.53;45.94;98419.59;4917005;28;120081;-83
2023/09/20 09:04:46;;;;;;;;;;;22.00;82.30;;;22.61;45.89;98413.56;4926954;28;124419;-82
2023/09/20 09:07:13;;;;;;;;;;;22.10;82.40;;;22.71;45.97;98404.31;4958005;28;124061;-85
2023/09/20 09:09:41;;;;;;;;;;;22.20;82.50;;;22.82;45.52;98406.31;4946255;28;119817;-83
2023/09/20 09:12:08;;;;;;;;;;;22.30;82.30;;;22.85;44.36;98411.94;4932778;28;118887;-84
2023/09/20 09:14:37;;;;;;;;;;;22.30;80.10;;;22.88;43.23;98399.06;4941490;28;124466;-81
2023/09/20 09:17:07;;;;;;;;;;;22.40;78.20;;;22.96;43.10;98399.84;4925910;28;123976;-83
2023/09/20 09:19:35;;;;;;;;;;;22.50;78.10;;;23.03;42.87;98394.25;4928238;28;119829;-81
2023/09/20 09:22:02;;;;;;;;;;;22.50;77.80;;;23.12;42.76;98398.22;4953777;28;119327;-83
2023/09/20 09:24:45;;;;;;;;;;;22.60;77.30;;;23.18;42.32;98392.97;4930311;28;124554;-81
2023/09/20 09:27:14;;;;;;;;;;;22.70;76.60;;;23.25;41.75;98390.16;4933737;28;124047;-82
2023/09/20 09:29:44;;;;;;;;;;;22.70;75.90;;;23.32;41.59;98392.13;4916972;28;119680;-82
2023/09/20 09:32:13;;;;;;;;;;;22.80;75.30;;;23.34;41.98;98387.69;4925903;28;118882;-82
2023/09/20 09:34:41;;;;;;;;;;;22.80;75.40;;;23.35;41.55;98392.13;4945915;28;124480;-82
2023/09/20 09:37:10;;;;;;;;;;;22.90;74.90;;;23.36;41.67;98385.25;4946522;28;123914;-82
2023/09/20 09:39:36;;;;;;;;;;;23.00;75.00;;;23.41;41.93;98380.44;4962538;28;118831;-83
2023/09/20 09:42:03;;;;;;;;;;;23.00;75.20;;;23.43;41.76;98372.34;4950069;28;119231;-83
2023/09/20 09:44:48;;;;;;;;;;;23.00;74.80;;;23.46;42.04;98369.53;4919448;28;123156;-83
2023/09/20 09:47:16;;;;;;;;;;;23.10;75.00;;;23.52;41.73;98367.09;4933598;28;124001;-83
2023/09/20 09:49:42;;;;;;;;;;;23.10;74.90;;;23.58;41.50;98373.91;4936100;28;119558;-83
2023/09/20 09:52:11;;;;;;;;;;;23.20;74.90;;;23.64;41.23;98365.81;4921839;28;119980;-82
2023/09/20 09:54:38;;;;;;;;;;;23.20;74.50;;;23.68;40.83;98349.69;4955285;28;124156;-83
2023/09/20 09:57:04;;;;;;;;;;;23.30;73.60;;;23.72;40.81;98351.31;4949513;28;123769;-83
2023/09/20 09:59:30;;;;;;;;;;;23.30;73.60;;;23.75;40.53;98344.84;4930757;28;119260;-83
2023/09/20 10:02:01;;;;;;;;;;;23.30;72.90;;;23.79;40.05;98341.97;4915942;28;118025;-83
2023/09/20 10:04:27;;;;;;;;;;;23.40;72.50;;;23.82;39.41;98338.34;4923713;28;124134;-83
2023/09/20 10:07:09;;;;;;;;;;;23.40;71.20;;;23.85;38.74;98336.69;4948476;28;123549;-83
2023/09/20 10:09:38;;;;;;;;;;;23.40;70.00;;;23.88;38.17;98335.88;4923733;28;118538;-83
2023/09/20 10:12:05;;;;;;;;;;;23.50;69.10;;;23.93;37.33;98327.78;4921098;28;118781;-83
2023/09/20 10:14:36;;;;;;;;;;;23.50;67.50;;;23.96;37.51;98326.13;4947088;28;124936;-84
2023/09/20 10:17:05;;;;;;;;;;;23.50;67.30;;;23.99;37.21;98333.78;4928643;28;123505;-83
2023/09/20 10:19:38;;;;;;;;;;;23.60;67.20;;;24.04;37.40;98330.50;4910763;28;119001;-82
2023/09/20 10:22:08;;;;;;;;;;;23.60;67.20;;;24.09;37.06;98326.44;4923582;28;119000;-82
2023/09/20 10:24:53;;;;;;;;;;;23.70;66.80;;;24.13;36.11;98319.56;4912859;28;124839;-84
2023/09/20 10:27:21;;;;;;;;;;;23.70;65.20;;;24.19;36.18;98317.91;4909568;28;122963;-82
2023/09/20 10:30:00;;;;;;;;;;;23.70;65.10;;;24.25;35.02;98318.25;4941849;28;120103;-83
2023/09/20 10:32:34;;;;;;;;;;;23.80;62.80;;;24.33;35.14;98316.19;4943736;28;118811;-84
2023/09/20 10:35:21;;;;;;;;;;;23.90;63.40;;;24.40;35.26;98304.81;4945743;28;124858;-84
2023/09/20 10:38:12;;;;;;;;;;;23.90;63.10;;;24.47;34.52;98307.59;4930690;28;124054;-83
2023/09/20 10:40:45;;;;;;;;;;;24.00;62.00;;;24.57;34.36;98303.88;4946147;28;120921;-83
2023/09/20 10:43:13;;;;;;;;;;;24.00;61.40;;;24.65;33.96;98302.56;4934078;28;119912;-83
2023/09/20 10:45:39;;;;;;;;;;;24.20;60.90;;;24.73;34.40;98291.22;4928152;28;124478;-83
2023/09/20 10:48:15;;;;;;;;;;;24.20;60.90;;;24.82;33.48;98283.81;4945330;28;124554;-84
2023/09/20 10:50:47;;;;;;;;;;;24.30;59.80;;;24.92;33.34;98277.25;4915772;28;119290;-83
2023/09/20 10:53:18;;;;;;;;;;;24.40;59.90;;;25.01;32.75;98279.59;4945589;28;118366;-83
2023/09/20 10:55:45;;;;;;;;;;;24.50;58.90;;;25.10;32.68;98273.41;4926133;28;124229;-85
2023/09/20 10:58:14;;;;;;;;;;;24.60;58.50;;;25.21;33.00;98273.31;4922335;28;123312;-83
2023/09/20 11:00:41;;;;;;;;;;;24.70;58.50;;;25.30;31.97;98270.75;4955960;28;119325;-83
2023/09/20 11:03:11;;;;;;;;;;;24.70;57.90;;;25.39;31.90;98265.38;4934172;28;118618;-83
2023/09/20 11:05:38;;;;;;;;;;;24.90;57.70;;;25.50;31.89;98268.84;4916476;28;124412;-84
2023/09/20 11:08:08;;;;;;;;;;;24.90;57.40;;;25.62;31.07;98253.31;4953440;28;124148;-84
2023/09/20 11:10:35;;;;;;;;;;;25.00;55.90;;;25.73;30.22;98248.28;4936384;28;118729;-84
2023/09/20 11:13:08;;;;;;;;;;;25.10;54.90;;;25.85;30.07;98251.81;4915722;28;118936;-83
2023/09/20 11:15:41;;;;;;;;;;;25.20;53.90;;;25.96;29.23;98250.38;4946961;28;125751;-83
2023/09/20 11:18:08;;;;;;;;;;;25.30;53.00;;;26.05;29.57;98240.53;4918778;28;121924;-84
2023/09/20 11:20:35;;;;;;;;;;;25.40;53.50;;;26.13;30.08;98242.03;4936198;28;119484;-83
2023/09/20 11:23:04;;;;;;;;;;;25.50;53.80;;;26.21;30.25;98238.63;4948330;28;118874;-83
2023/09/20 11:25:33;;;;;;;;;;;25.60;54.00;;;26.33;30.48;98234.38;4936951;28;124428;-84
2023/09/20 11:27:59;;;;;;;;;;;25.70;54.10;;;26.41;30.29;98235.84;4906730;28;122464;-83
2023/09/20 11:30:31;;;;;;;;;;;25.80;54.60;;;26.52;30.95;98229.19;4935276;28;120037;-84
2023/09/20 11:33:01;;;;;;;;;;;25.90;55.00;;;26.61;31.18;98232.28;4923072;28;119948;-85
2023/09/20 11:35:42;;;;;;;;;;;26.00;55.30;;;26.73;31.11;98231.59;4904702;28;123391;-84
2023/09/20 11:38:12;;;;;;;;;;;26.10;55.60;;;26.83;31.24;98221.28;4912629;28;124136;-84
2023/09/20 11:40:41;;;;;;;;;;;26.20;55.40;;;26.95;30.91;98217.00;4925017;28;119753;-84
2023/09/20 11:43:09;;;;;;;;;;;26.30;55.70;;;27.03;31.29;98212.78;4928401;28;117966;-83
2023/09/20 11:45:41;;;;;;;;;;;26.40;55.80;;;27.15;31.05;98214.94;4939506;28;124568;-84
2023/09/20 11:48:08;;;;;;;;;;;26.50;55.90;;;27.25;31.34;98213.94;4932081;28;123198;-82
2023/09/20 11:50:42;;;;;;;;;;;26.60;56.00;;;27.34;31.54;98212.53;4943886;28;120601;-85
2023/09/20 11:53:14;;;;;;;;;;;26.70;56.40;;;27.43;31.38;98207.03;4938450;28;117735;-84
2023/09/20 11:55:46;;;;;;;;;;;26.80;56.50;;;27.55;31.03;98203.53;4938827;28;124807;-83
2023/09/20 11:58:19;;;;;;;;;;;26.90;55.90;;;27.63;30.50;98187.13;4926363;28;124148;-83
2023/09/20 12:00:49;;;;;;;;;;;27.00;55.00;;;27.71;30.26;98182.88;4938766;28;118379;-84